createdAt,value
2019-03-05T00:01:59.117Z,97011.27
2019-03-05T00:04:29.536Z,97005.29
2019-03-05T00:06:59.874Z,97016.86
2019-03-05T00:09:30.191Z,97017.69
2019-03-05T00:12:00.369Z,97011.20
2019-03-05T00:14:30.603Z,97023.06
2019-03-05T00:17:00.977Z,97020.56
2019-03-05T00:19:31.240Z,97036.43
2019-03-05T00:22:01.618Z,97028.38
2019-03-05T00:25:01.590Z,97029.20
2019-03-05T00:27:45.766Z,97035.94
2019-03-05T00:31:02.673Z,97030.44
2019-03-05T00:34:09.091Z,97030.59
2019-03-05T00:37:19.924Z,97038.86
2019-03-05T00:40:35.745Z,97044.14
2019-03-05T00:43:36.711Z,97045.59
2019-03-05T00:47:06.056Z,97053.14
2019-03-05T00:50:16.122Z,97060.89
2019-03-05T00:53:07.834Z,97060.19
2019-03-05T00:56:09.826Z,97065.39
2019-03-05T00:59:17.011Z,97063.69
2019-03-05T01:02:37.985Z,97068.50
2019-03-05T01:05:55.743Z,97071.94
2019-03-05T01:08:26.715Z,97079.78
2019-03-05T01:10:57.265Z,97078.92
2019-03-05T01:13:27.637Z,97087.38
2019-03-05T01:15:58.043Z,97075.63
2019-03-05T01:18:28.287Z,97077.00
2019-03-05T01:20:58.601Z,97083.49
2019-03-05T01:23:28.919Z,97080.55
2019-03-05T01:25:59.364Z,97083.13
2019-03-05T01:28:29.870Z,97072.75
2019-03-05T01:31:19.798Z,97077.56
2019-03-05T01:33:54.871Z,97068.08
2019-03-05T01:36:26.917Z,97076.28
2019-03-05T01:39:03.898Z,97069.61
2019-03-05T01:41:34.292Z,97069.64
2019-03-05T01:44:04.656Z,97070.14
2019-03-05T01:46:34.887Z,97063.91
2019-03-05T01:49:05.345Z,97067.52
2019-03-05T01:51:35.518Z,97076.79
2019-03-05T01:54:05.872Z,97067.88
2019-03-05T01:56:36.190Z,97065.30
2019-03-05T01:59:06.615Z,97063.03
2019-03-05T02:01:37.034Z,97069.24
2019-03-05T02:04:07.462Z,97081.70
2019-03-05T02:06:37.840Z,97079.42
2019-03-05T02:09:10.100Z,97077.30
2019-03-05T02:11:40.408Z,97076.84
2019-03-05T02:14:10.786Z,97073.50
2019-03-05T02:16:41.125Z,97078.67
2019-03-05T02:19:47.137Z,97071.78
2019-03-05T02:22:46.838Z,97061.45
2019-03-05T02:25:42.233Z,97063.30
2019-03-05T02:28:59.552Z,97054.00
2019-03-05T02:32:20.289Z,97058.89
2019-03-05T02:35:55.300Z,97049.78
2019-03-05T02:39:24.853Z,97047.16
2019-03-05T02:42:56.090Z,97055.73
2019-03-05T02:45:43.361Z,97051.31
2019-03-05T02:49:10.963Z,97050.20
2019-03-05T02:52:31.583Z,97049.77
2019-03-05T02:55:48.988Z,97039.33
2019-03-05T02:58:17.060Z,97038.66
2019-03-05T03:01:05.202Z,97038.97
2019-03-05T03:03:42.159Z,97034.51
2019-03-05T03:06:18.850Z,97031.79
2019-03-05T03:08:49.179Z,97023.98
2019-03-05T03:11:19.522Z,97021.20
2019-03-05T03:13:49.911Z,97018.56
2019-03-05T03:16:20.282Z,97017.25
2019-03-05T03:18:50.660Z,97023.08
2019-03-05T03:21:21.009Z,97026.52
2019-03-05T03:23:51.415Z,97029.59
2019-03-05T03:26:21.846Z,97040.39
2019-03-05T03:28:52.218Z,97049.91
2019-03-05T03:31:22.550Z,97060.33
2019-03-05T03:33:53.049Z,97061.07
2019-03-05T03:36:23.496Z,97068.92
2019-03-05T03:38:53.840Z,97061.79
2019-03-05T03:41:24.214Z,97059.91
2019-03-05T03:43:54.647Z,97062.84
2019-03-05T03:46:25.091Z,97062.12
2019-03-05T03:48:55.481Z,97053.78
2019-03-05T03:51:25.916Z,97054.09
2019-03-05T03:53:56.456Z,97055.32
2019-03-05T03:56:26.789Z,97058.47
2019-03-05T03:58:57.213Z,97054.31
2019-03-05T04:01:27.591Z,97056.95
2019-03-05T04:03:57.991Z,97053.86
2019-03-05T04:06:28.610Z,97053.21
2019-03-05T04:08:59.124Z,97054.27
2019-03-05T04:11:29.517Z,97067.64
2019-03-05T04:13:59.955Z,97060.78
2019-03-05T04:16:30.413Z,97065.16
2019-03-05T04:19:02.456Z,97061.80
2019-03-05T04:21:32.883Z,97060.48
2019-03-05T04:24:03.114Z,97063.48
2019-03-05T04:26:33.521Z,97066.77
2019-03-05T04:29:03.948Z,97066.11
2019-03-05T04:31:34.879Z,97067.64
2019-03-05T04:34:05.265Z,97072.24
2019-03-05T04:36:35.549Z,97070.92
2019-03-05T04:39:11.402Z,97066.41
2019-03-05T04:41:41.788Z,97058.36
2019-03-05T04:44:13.545Z,97060.55
2019-03-05T04:46:50.428Z,97062.91
2019-03-05T04:49:32.832Z,97061.59
2019-03-05T04:52:05.897Z,97060.78
2019-03-05T04:54:36.242Z,97054.62
2019-03-05T04:57:06.548Z,97056.89
2019-03-05T04:59:37.019Z,97051.98
2019-03-05T05:02:07.408Z,97052.89
2019-03-05T05:04:37.829Z,97053.70
2019-03-05T05:07:08.161Z,97052.89
2019-03-05T05:09:38.494Z,97058.56
2019-03-05T05:12:08.871Z,97062.97
2019-03-05T05:14:39.353Z,97063.40
2019-03-05T05:17:09.780Z,97067.73
2019-03-05T05:19:39.915Z,97063.53
2019-03-05T05:22:10.284Z,97056.22
2019-03-05T05:24:40.768Z,97052.86
2019-03-05T05:27:11.534Z,97056.23
2019-03-05T05:29:41.789Z,97059.30
2019-03-05T05:32:12.116Z,97066.31
2019-03-05T05:34:42.392Z,97062.88
2019-03-05T05:37:12.801Z,97062.16
2019-03-05T05:40:21.877Z,97064.78
2019-03-05T05:42:52.722Z,97065.17
2019-03-05T05:45:25.085Z,97063.40
2019-03-05T05:47:55.510Z,97054.94
2019-03-05T05:50:25.981Z,97054.41
2019-03-05T05:52:56.271Z,97048.12
2019-03-05T05:55:26.744Z,97056.83
2019-03-05T05:57:57.177Z,97056.98
2019-03-05T06:00:27.653Z,97058.51
2019-03-05T06:02:58.040Z,97068.17
2019-03-05T06:05:28.559Z,97056.47
2019-03-05T06:07:58.989Z,97050.31
2019-03-05T06:10:29.375Z,97049.41
2019-03-05T06:12:59.855Z,97049.34
2019-03-05T06:15:30.302Z,97063.92
2019-03-05T06:18:19.790Z,97068.95
2019-03-05T06:20:50.200Z,97070.56
2019-03-05T06:23:20.573Z,97065.36
2019-03-05T06:25:50.949Z,97070.32
2019-03-05T06:28:21.232Z,97067.17
2019-03-05T06:30:51.362Z,97074.86
2019-03-05T06:33:21.795Z,97075.31
2019-03-05T06:35:52.198Z,97064.97
2019-03-05T06:38:22.442Z,97069.98
2019-03-05T06:40:52.847Z,97064.95
2019-03-05T06:43:23.145Z,97059.01
2019-03-05T06:45:53.452Z,97060.81
2019-03-05T06:48:23.766Z,97064.46
2019-03-05T06:50:54.083Z,97067.79
2019-03-05T06:53:24.445Z,97070.72
2019-03-05T06:55:54.758Z,97076.67
2019-03-05T06:58:24.984Z,97088.45
2019-03-05T07:00:55.292Z,97080.89
2019-03-05T07:03:25.505Z,97088.85
2019-03-05T07:06:48.082Z,97095.58
2019-03-05T07:09:52.460Z,97102.52
2019-03-05T07:13:01.767Z,97101.66
2019-03-05T07:15:58.783Z,97108.72
2019-03-05T07:18:46.890Z,97123.44
2019-03-05T07:22:12.555Z,97124.46
2019-03-05T07:24:52.524Z,97119.81
2019-03-05T07:27:29.949Z,97119.59
2019-03-05T07:30:22.724Z,97119.02
2019-03-05T07:32:53.781Z,97120.35
2019-03-05T07:35:26.498Z,97110.62
2019-03-05T07:37:56.917Z,97115.63
2019-03-05T07:40:27.246Z,97113.16
2019-03-05T07:42:57.585Z,97111.62
2019-03-05T07:45:28.056Z,97106.95
2019-03-05T07:47:58.444Z,97105.36
2019-03-05T07:50:28.738Z,97099.91
2019-03-05T07:52:59.062Z,97101.38
2019-03-05T07:55:29.357Z,97102.16
2019-03-05T07:57:59.575Z,97106.41
2019-03-05T08:00:29.790Z,97102.53
2019-03-05T08:03:00.062Z,97100.11
2019-03-05T08:05:30.348Z,97107.05
2019-03-05T08:08:56.282Z,97102.50
2019-03-05T08:11:26.609Z,97099.30
2019-03-05T08:14:49.374Z,97120.03
2019-03-05T08:17:19.897Z,97106.77
2019-03-05T08:19:50.262Z,97118.45
2019-03-05T08:22:20.785Z,97133.83
2019-03-05T08:24:51.171Z,97125.34
2019-03-05T08:27:21.618Z,97125.86
2019-03-05T08:29:51.946Z,97141.78
2019-03-05T08:32:22.331Z,97151.46
2019-03-05T08:34:52.636Z,97146.03
2019-03-05T08:37:23.029Z,97147.20
2019-03-05T08:39:53.410Z,97143.55
2019-03-05T08:42:23.749Z,97148.91
2019-03-05T08:44:53.884Z,97148.63
2019-03-05T08:47:24.132Z,97160.83
2019-03-05T08:49:54.302Z,97156.30
2019-03-05T08:52:24.644Z,97165.37
2019-03-05T08:54:54.786Z,97174.52
2019-03-05T08:57:25.007Z,97178.17
2019-03-05T08:59:55.319Z,97170.92
2019-03-05T09:02:25.646Z,97179.63
2019-03-05T09:04:55.898Z,97182.75
2019-03-05T09:07:26.260Z,97178.65
2019-03-05T09:09:56.464Z,97196.90
2019-03-05T09:12:26.796Z,97203.05
2019-03-05T09:14:57.011Z,97195.89
2019-03-05T09:17:27.266Z,97185.59
2019-03-05T09:19:57.677Z,97198.45
2019-03-05T09:22:27.846Z,97196.00
2019-03-05T09:24:58.187Z,97193.20
2019-03-05T09:27:28.534Z,97189.05
2019-03-05T09:29:58.875Z,97187.37
2019-03-05T09:32:29.097Z,97192.58
2019-03-05T09:34:59.352Z,97190.97
2019-03-05T09:37:29.725Z,97195.56
2019-03-05T09:40:00.346Z,97203.73
2019-03-05T09:42:39.491Z,97190.95
2019-03-05T09:45:02.719Z,97185.48
2019-03-05T09:47:33.130Z,97191.70
2019-03-05T09:50:03.531Z,97161.47
2019-03-05T09:52:33.742Z,97172.77
2019-03-05T09:55:04.875Z,97168.44
2019-03-05T09:57:35.114Z,97164.43
2019-03-05T10:00:06.692Z,97176.59
2019-03-05T10:02:36.912Z,97174.09
2019-03-05T10:05:08.354Z,97165.33
2019-03-05T10:07:38.842Z,97190.92
2019-03-05T10:10:12.020Z,97180.94
2019-03-05T10:12:42.539Z,97183.61
2019-03-05T10:15:16.795Z,97168.09
2019-03-05T10:17:49.791Z,97172.39
2019-03-05T10:20:21.475Z,97171.67
2019-03-05T10:22:52.242Z,97163.44
2019-03-05T10:25:24.362Z,97162.22
2019-03-05T10:27:54.920Z,97167.64
2019-03-05T10:30:27.689Z,97174.52
2019-03-05T10:32:59.755Z,97169.11
2019-03-05T10:35:30.469Z,97181.64
2019-03-05T10:38:02.381Z,97174.27
2019-03-05T10:40:36.061Z,97190.55
2019-03-05T10:43:09.212Z,97172.13
2019-03-05T10:45:43.260Z,97166.05
2019-03-05T10:48:14.994Z,97183.95
2019-03-05T10:50:45.405Z,97179.44
2019-03-05T10:53:15.754Z,97166.34
2019-03-05T10:55:46.264Z,97188.94
2019-03-05T10:58:18.675Z,97166.14
2019-03-05T11:00:49.200Z,97154.70
2019-03-05T11:03:20.254Z,97177.95
2019-03-05T11:05:51.201Z,97169.37
2019-03-05T11:08:23.696Z,97163.35
2019-03-05T11:10:54.911Z,97164.53
2019-03-05T11:13:25.508Z,97165.66
2019-03-05T11:15:57.598Z,97161.28
2019-03-05T11:18:29.664Z,97170.63
2019-03-05T11:21:00.105Z,97153.09
2019-03-05T11:23:30.571Z,97140.22
2019-03-05T11:26:00.903Z,97144.73
2019-03-05T11:28:31.124Z,97142.01
2019-03-05T11:31:01.517Z,97123.92
2019-03-05T11:33:31.868Z,97137.70
2019-03-05T11:36:02.267Z,97130.22
2019-03-05T11:38:32.678Z,97124.41
2019-03-05T11:41:03.381Z,97133.47
2019-03-05T11:43:33.760Z,97131.00
2019-03-05T11:46:05.618Z,97127.97
2019-03-05T11:48:36.005Z,97131.96
2019-03-05T11:51:06.539Z,97121.08
2019-03-05T11:53:36.950Z,97128.71
2019-03-05T11:56:08.614Z,97122.55
2019-03-05T11:58:38.963Z,97130.11
2019-03-05T12:01:13.840Z,97115.58
2019-03-05T12:03:44.256Z,97139.15
2019-03-05T12:06:14.652Z,97142.22
2019-03-05T12:08:44.995Z,97127.84
2019-03-05T12:11:15.388Z,97132.84
2019-03-05T12:13:45.678Z,97129.40
2019-03-05T12:16:16.631Z,97140.48
2019-03-05T12:18:47.106Z,97125.38
2019-03-05T12:21:17.516Z,97118.88
2019-03-05T12:23:48.376Z,97123.43
2019-03-05T12:26:18.871Z,97130.50
2019-03-05T12:28:49.214Z,97132.87
2019-03-05T12:31:19.628Z,97137.84
2019-03-05T12:33:49.910Z,97129.64
2019-03-05T12:36:20.335Z,97133.19
2019-03-05T12:38:50.670Z,97121.10
2019-03-05T12:41:21.089Z,97117.07
2019-03-05T12:43:51.391Z,97127.75
2019-03-05T12:46:21.716Z,97122.30
2019-03-05T12:48:52.091Z,97114.05
2019-03-05T12:51:22.487Z,97134.33
2019-03-05T12:53:52.822Z,97124.00
2019-03-05T12:56:24.327Z,97124.80
2019-03-05T12:58:54.953Z,97112.77
2019-03-05T13:01:25.306Z,97122.20
2019-03-05T13:03:55.558Z,97142.54
2019-03-05T13:06:25.992Z,97120.08
2019-03-05T13:08:56.175Z,97117.83
2019-03-05T13:11:26.493Z,97133.45
2019-03-05T13:14:06.135Z,97141.80
2019-03-05T13:16:28.979Z,97136.22
2019-03-05T13:18:59.327Z,97135.81
2019-03-05T13:21:29.608Z,97146.30
2019-03-05T13:23:59.941Z,97139.98
2019-03-05T13:26:30.267Z,97142.86
2019-03-05T13:29:00.508Z,97141.73
2019-03-05T13:31:31.016Z,97153.75
2019-03-05T13:34:01.267Z,97149.69
2019-03-05T13:36:31.590Z,97148.06
2019-03-05T13:39:01.894Z,97163.27
2019-03-05T13:41:32.190Z,97157.34
2019-03-05T13:44:02.501Z,97171.80
2019-03-05T13:46:32.822Z,97177.03
2019-03-05T13:49:47.635Z,97180.09
2019-03-05T13:53:23.968Z,97175.97
2019-03-05T13:56:48.668Z,97188.03
2019-03-05T14:00:03.576Z,97185.30
2019-03-05T14:03:04.871Z,97183.88
2019-03-05T14:06:50.011Z,97191.92
2019-03-05T14:09:19.807Z,97190.15
2019-03-05T14:11:53.992Z,97194.09
2019-03-05T14:14:29.576Z,97195.09
2019-03-05T14:17:07.874Z,97201.86
2019-03-05T14:19:38.230Z,97197.96
2019-03-05T14:22:08.650Z,97201.38
2019-03-05T14:24:38.980Z,97192.16
2019-03-05T14:27:09.276Z,97192.58
2019-03-05T14:29:39.791Z,97189.09
2019-03-05T14:32:11.851Z,97200.47
2019-03-05T14:34:43.871Z,97210.77
2019-03-05T14:37:14.375Z,97215.34
2019-03-05T14:39:44.843Z,97214.03
2019-03-05T14:42:15.393Z,97223.77
2019-03-05T14:44:45.781Z,97229.32
2019-03-05T14:47:16.268Z,97226.16
2019-03-05T14:49:46.551Z,97225.28
2019-03-05T14:52:16.858Z,97235.60
2019-03-05T14:54:47.196Z,97241.59
2019-03-05T14:57:17.490Z,97250.48
2019-03-05T14:59:47.955Z,97248.58
2019-03-05T15:02:18.218Z,97251.91
2019-03-05T15:04:48.592Z,97244.92
2019-03-05T15:07:18.917Z,97255.17
2019-03-05T15:09:49.250Z,97255.25
2019-03-05T15:12:19.461Z,97263.19
2019-03-05T15:14:49.737Z,97270.05
2019-03-05T15:17:19.976Z,97281.59
2019-03-05T15:19:50.240Z,97273.73
2019-03-05T15:22:20.412Z,97286.28
2019-03-05T15:24:50.881Z,97291.44
2019-03-05T15:27:21.210Z,97290.80
2019-03-05T15:29:51.563Z,97296.14
2019-03-05T15:32:21.828Z,97298.14
2019-03-05T15:34:52.112Z,97296.48
2019-03-05T15:37:22.659Z,97301.42
2019-03-05T15:39:53.061Z,97302.39
2019-03-05T15:42:23.303Z,97298.89
2019-03-05T15:44:53.576Z,97296.47
2019-03-05T15:47:24.038Z,97302.48
2019-03-05T15:49:54.374Z,97310.01
2019-03-05T15:52:24.850Z,97305.70
2019-03-05T15:54:55.009Z,97304.13
2019-03-05T15:57:26.380Z,97309.36
2019-03-05T15:59:56.742Z,97308.98
2019-03-05T16:02:27.077Z,97309.50
2019-03-05T16:04:57.354Z,97312.22
2019-03-05T16:07:27.591Z,97315.32
2019-03-05T16:09:57.940Z,97314.11
2019-03-05T16:12:28.273Z,97314.99
2019-03-05T16:14:58.587Z,97316.94
2019-03-05T16:17:29.717Z,97323.53
2019-03-05T16:20:00.174Z,97317.17
2019-03-05T16:22:30.600Z,97324.70
2019-03-05T16:25:00.821Z,97333.54
2019-03-05T16:27:31.519Z,97330.66
2019-03-05T16:30:01.746Z,97332.59
2019-03-05T16:32:40.957Z,97326.34
2019-03-05T16:35:31.435Z,97320.16
2019-03-05T16:38:10.426Z,97317.22
2019-03-05T16:40:50.973Z,97321.69
2019-03-05T16:43:37.723Z,97318.37
2019-03-05T16:46:25.462Z,97308.63
2019-03-05T16:49:30.243Z,97308.13
2019-03-05T16:52:19.545Z,97323.25
2019-03-05T16:54:56.287Z,97333.41
2019-03-05T16:57:45.541Z,97337.81
2019-03-05T17:00:48.783Z,97336.70
2019-03-05T17:03:44.004Z,97344.86
2019-03-05T17:06:29.310Z,97362.78
2019-03-05T17:09:21.252Z,97369.92
2019-03-05T17:11:54.913Z,97378.92
2019-03-05T17:14:25.746Z,97379.94
2019-03-05T17:16:56.047Z,97378.26
2019-03-05T17:19:26.447Z,97378.56
2019-03-05T17:21:56.917Z,97381.92
2019-03-05T17:24:27.518Z,97384.34
2019-03-05T17:26:57.869Z,97386.17
2019-03-05T17:29:28.327Z,97393.73
2019-03-05T17:31:59.582Z,97379.07
2019-03-05T17:34:30.022Z,97387.64
2019-03-05T17:37:00.513Z,97387.28
2019-03-05T17:39:31.436Z,97388.00
2019-03-05T17:42:01.885Z,97388.97
2019-03-05T17:44:32.443Z,97380.98
2019-03-05T17:47:02.848Z,97406.93
2019-03-05T17:49:33.092Z,97400.84
2019-03-05T17:52:03.324Z,97406.84
2019-03-05T17:54:33.692Z,97410.28
2019-03-05T17:57:04.078Z,97417.64
2019-03-05T17:59:34.493Z,97432.66
2019-03-05T18:02:04.965Z,97423.64
2019-03-05T18:04:35.242Z,97422.61
2019-03-05T18:07:05.693Z,97432.36
2019-03-05T18:09:36.032Z,97434.13
2019-03-05T18:12:06.507Z,97448.92
2019-03-05T18:14:37.008Z,97455.82
2019-03-05T18:17:07.526Z,97453.98
2019-03-05T18:19:37.911Z,97453.18
2019-03-05T18:22:08.252Z,97453.75
2019-03-05T18:24:38.589Z,97455.16
2019-03-05T18:27:08.933Z,97458.31
2019-03-05T18:29:39.267Z,97458.01
2019-03-05T18:32:09.598Z,97459.33
2019-03-05T18:34:39.980Z,97459.33
2019-03-05T18:37:10.281Z,97467.04
2019-03-05T18:39:40.769Z,97468.66
2019-03-05T18:42:11.243Z,97471.36
2019-03-05T18:44:41.490Z,97478.05
2019-03-05T18:47:11.847Z,97480.59
2019-03-05T18:49:42.275Z,97479.15
2019-03-05T18:52:12.722Z,97488.59
2019-03-05T18:54:43.048Z,97486.47
2019-03-05T18:57:13.566Z,97491.80
2019-03-05T18:59:43.925Z,97492.56
2019-03-05T19:02:14.724Z,97491.45
2019-03-05T19:04:45.126Z,97493.80
2019-03-05T19:07:15.550Z,97494.70
2019-03-05T19:09:45.951Z,97495.20
2019-03-05T19:12:16.474Z,97499.07
2019-03-05T19:14:46.881Z,97507.80
2019-03-05T19:17:17.226Z,97501.64
2019-03-05T19:19:47.528Z,97504.65
2019-03-05T19:25:25.795Z,97504.80
2019-03-05T19:27:56.323Z,97513.46
2019-03-05T19:30:32.689Z,97509.79
2019-03-05T19:33:03.135Z,97514.09
2019-03-05T19:35:33.398Z,97519.72
2019-03-05T19:38:03.810Z,97522.80
2019-03-05T19:40:35.713Z,97515.84
2019-03-05T19:43:06.359Z,97516.92
2019-03-05T19:45:39.916Z,97523.72
2019-03-05T19:48:10.390Z,97517.50
2019-03-05T19:50:40.780Z,97518.24
2019-03-05T19:53:11.192Z,97521.55
2019-03-05T19:55:41.622Z,97526.22
2019-03-05T19:58:12.798Z,97525.55
2019-03-05T20:01:04.179Z,97529.64
2019-03-05T20:03:34.529Z,97532.75
2019-03-05T20:06:05.031Z,97529.23
2019-03-05T20:08:40.002Z,97533.59
2019-03-05T20:11:07.969Z,97534.27
2019-03-05T20:13:38.919Z,97540.36
2019-03-05T20:16:10.516Z,97529.61
2019-03-05T20:18:41.105Z,97536.10
2019-03-05T20:21:11.785Z,97529.51
2019-03-05T20:23:42.204Z,97528.92
2019-03-05T20:26:12.793Z,97528.42
2019-03-05T20:28:43.174Z,97531.50
2019-03-05T20:31:13.802Z,97532.75
2019-03-05T20:33:44.053Z,97542.73
2019-03-05T20:36:14.321Z,97540.43
2019-03-05T20:38:44.620Z,97542.02
2019-03-05T20:41:14.877Z,97548.51
2019-03-05T20:43:45.400Z,97542.25
2019-03-05T20:46:23.842Z,97543.38
2019-03-05T20:48:54.253Z,97543.44
2019-03-05T20:51:25.296Z,97537.89
2019-03-05T20:53:55.973Z,97535.52
2019-03-05T20:56:26.434Z,97536.27
2019-03-05T20:58:56.838Z,97539.07
2019-03-05T21:03:39.294Z,97548.91
2019-03-05T21:06:09.681Z,97535.71
2019-03-05T21:08:41.470Z,97546.41
2019-03-05T21:11:11.798Z,97545.32
2019-03-05T21:13:42.191Z,97543.62
2019-03-05T21:16:12.505Z,97530.50
2019-03-05T21:18:42.669Z,97532.08
2019-03-05T21:21:13.023Z,97534.11
2019-03-05T21:23:43.442Z,97544.09
2019-03-05T21:26:13.866Z,97546.13
2019-03-05T21:28:44.198Z,97537.86
2019-03-05T21:31:14.587Z,97533.67
2019-03-05T21:33:44.943Z,97506.32
2019-03-05T21:36:15.251Z,97521.74
2019-03-05T21:38:45.557Z,97520.48
2019-03-05T21:41:15.920Z,97515.30
2019-03-05T21:43:46.333Z,97511.25
2019-03-05T21:46:18.740Z,97510.38
2019-03-05T21:48:49.086Z,97512.48
2019-03-05T21:51:19.490Z,97508.69
2019-03-05T21:53:49.903Z,97512.36
2019-03-05T21:56:20.345Z,97515.81
2019-03-05T21:58:50.663Z,97516.54
2019-03-05T22:01:20.954Z,97519.18
2019-03-05T22:03:51.540Z,97516.03
2019-03-05T22:06:21.779Z,97521.98
2019-03-05T22:08:52.215Z,97521.47
2019-03-05T22:11:22.619Z,97522.03
2019-03-05T22:13:52.937Z,97529.00
2019-03-05T22:16:23.106Z,97523.42
2019-03-05T22:18:53.515Z,97520.36
2019-03-05T22:21:23.918Z,97525.48
2019-03-05T22:23:54.301Z,97521.02
2019-03-05T22:26:24.940Z,97515.22
2019-03-05T22:28:55.126Z,97521.22
2019-03-05T22:31:26.911Z,97514.19
2019-03-05T22:33:57.447Z,97520.13
2019-03-05T22:36:27.719Z,97513.74
2019-03-05T22:38:57.951Z,97510.75
2019-03-05T22:41:28.429Z,97509.80
2019-03-05T22:43:58.683Z,97504.22
2019-03-05T22:46:30.430Z,97503.26
2019-03-05T22:49:00.835Z,97513.07
2019-03-05T22:51:31.070Z,97508.39
2019-03-05T22:54:02.372Z,97509.11
2019-03-05T22:56:32.681Z,97505.78
2019-03-05T22:59:02.888Z,97496.89
2019-03-05T23:01:43.522Z,97508.53
2019-03-05T23:04:19.026Z,97512.23
2019-03-05T23:06:49.607Z,97514.57
2019-03-05T23:09:26.210Z,97511.12
2019-03-05T23:11:56.724Z,97505.23
2019-03-05T23:14:27.297Z,97497.83
2019-03-05T23:16:57.710Z,97496.72
2019-03-05T23:19:29.157Z,97493.41
2019-03-05T23:21:59.602Z,97495.84
2019-03-05T23:24:30.407Z,97495.94
2019-03-05T23:27:00.850Z,97492.98
2019-03-05T23:29:39.978Z,97491.61
2019-03-05T23:32:10.295Z,97503.19
2019-03-05T23:34:42.494Z,97482.00
2019-03-05T23:37:12.869Z,97487.93
2019-03-05T23:39:43.614Z,97487.20
2019-03-05T23:42:14.136Z,97477.95
2019-03-05T23:44:44.552Z,97483.95
2019-03-05T23:47:14.859Z,97479.23
2019-03-05T23:49:45.215Z,97470.23
2019-03-05T23:52:15.649Z,97463.41
2019-03-05T23:54:45.919Z,97464.19
2019-03-05T23:57:16.412Z,97460.75
2019-03-05T23:59:46.827Z,97458.14
